Pagina principale
METAR-TAF:

METAR-TAF

Aeroporti :

Aeroporto di Spalato-Castelli

Spalato, Croazia

latitudine: 43-32N, longitudine: 016-18E, altezza: 19 m

Osservazione

Il bollettino è stato emesso 31 minuti fa, alle 12:00 UTC
Vento 7 kt da sud/sud-ovest
Temperature 19°C
Umidità 52%
Pressione 1019 hPa
Visibilità 10 km o più
Poco nuvoloso ad un'altezza di 5000 ft

METAR: LDSP 261200Z 21007KT 9999 FEW050 19/09 Q1019 NOSIG

Ora: 14:31 (12:31 UTC)

Previsione

Il bollettino è stato emesso 1 ora e 6 minuti fa, alle 11:25 UTC
Previsione valida dal 26 alle 12 UTC al 27 alle 12 UTC
Vento 5 kt da sud/sud-ovest
Visibilità 10 km o più
nessuna nube inferiore a 1500 m e nessun cumulonembo
Probabilità 30%
dal 26 alle 12 UTC al 26 alle 16 UTC
Vento 7 kt da sud-ovest
Probabilità 30% :
Temporaneamente
dal 27 alle 00 UTC al 27 alle 09 UTC
Vento 8 kt da nord-est

TAF: LDSP 261125Z 2612/2712 20005KT CAVOK TX20/2711Z TN12/2705Z PROB30 2612/2616 23007KT PROB30 TEMPO 2700/2709 04008KT

Osservazioni e previsioni meteorologiche di più di 4000 aeroporti (messaggi METAR e TAF).

Le stazioni disponibili sono rappresentate dai dischi gialli e rossi sulla carta.

Puntare il mouse per vedere il nome della stazione.

Clicca sopra per visualizzare le osservazioni e previsioni meteorologiche.

Per cambiare la mappa : fare clic sui pulsanti verdi con una croce nera per ingrandire, il pulsante verde con un trattino per diminuire, o sulla freccia verde per le mappe adiacenti.


METAR-TAF: